createdAt,value
2017-12-24T00:01:39.430Z,91.30
2017-12-24T00:04:07.896Z,91.30
2017-12-24T00:06:36.192Z,91.30
2017-12-24T00:09:04.504Z,91.30
2017-12-24T00:11:32.795Z,91.40
2017-12-24T00:14:01.099Z,91.40
2017-12-24T00:16:29.393Z,91.40
2017-12-24T00:18:57.707Z,91.70
2017-12-24T00:21:25.995Z,91.30
2017-12-24T00:23:54.296Z,91.30
2017-12-24T00:26:22.580Z,91.30
2017-12-24T00:28:50.891Z,91.40
2017-12-24T00:31:19.179Z,91.40
2017-12-24T00:33:47.498Z,91.40
2017-12-24T00:36:15.792Z,91.20
2017-12-24T00:38:44.104Z,91.20
2017-12-24T00:41:12.396Z,91.30
2017-12-24T00:43:40.705Z,91.30
2017-12-24T00:46:08.996Z,91.20
2017-12-24T00:48:37.303Z,91.30
2017-12-24T00:51:05.598Z,91.30
2017-12-24T00:53:33.915Z,91.10
2017-12-24T00:56:02.216Z,91.20
2017-12-24T00:58:30.532Z,91.30
2017-12-24T01:00:58.825Z,91.20
2017-12-24T01:03:27.132Z,91.10
2017-12-24T01:05:55.420Z,91.00
2017-12-24T01:08:23.729Z,91.10
2017-12-24T01:10:51.263Z,91.10
2017-12-24T01:13:19.580Z,91.10
2017-12-24T01:15:47.870Z,91.00
2017-12-24T01:18:16.179Z,91.10
2017-12-24T01:20:44.481Z,91.10
2017-12-24T01:23:12.800Z,91.20
2017-12-24T01:25:41.102Z,91.20
2017-12-24T01:28:09.396Z,91.20
2017-12-24T01:30:37.708Z,91.20
2017-12-24T01:33:06.005Z,91.20
2017-12-24T01:35:34.320Z,91.30
2017-12-24T01:38:02.611Z,91.20
2017-12-24T01:40:30.921Z,91.20
2017-12-24T01:42:59.209Z,91.10
2017-12-24T01:45:27.528Z,91.20
2017-12-24T01:47:55.826Z,91.20
2017-12-24T01:50:24.140Z,91.10
2017-12-24T01:52:52.427Z,91.20
2017-12-24T01:55:20.742Z,91.30
2017-12-24T01:57:49.035Z,91.00
2017-12-24T02:00:17.348Z,91.10
2017-12-24T02:02:44.876Z,91.10
2017-12-24T02:05:13.202Z,91.10
2017-12-24T02:07:41.493Z,91.10
2017-12-24T02:10:09.805Z,91.10
2017-12-24T02:12:38.088Z,91.20
2017-12-24T02:15:06.404Z,91.00
2017-12-24T02:17:34.698Z,91.00
2017-12-24T02:20:03.017Z,90.90
2017-12-24T02:22:31.312Z,90.90
2017-12-24T02:24:59.632Z,90.90
2017-12-24T02:27:27.937Z,90.80
2017-12-24T02:29:56.249Z,90.80
2017-12-24T02:32:24.542Z,91.00
2017-12-24T02:34:52.869Z,90.90
2017-12-24T02:37:21.162Z,91.00
2017-12-24T02:39:49.473Z,91.00
2017-12-24T02:42:17.769Z,91.00
2017-12-24T02:44:46.080Z,91.00
2017-12-24T02:47:14.385Z,91.00
2017-12-24T02:49:42.698Z,91.00
2017-12-24T02:52:10.998Z,91.00
2017-12-24T02:54:39.334Z,91.10
2017-12-24T02:57:07.634Z,91.10
2017-12-24T02:59:35.957Z,91.00
2017-12-24T03:02:04.253Z,91.00
2017-12-24T03:04:32.564Z,91.10
2017-12-24T03:07:00.852Z,91.00
2017-12-24T03:09:29.144Z,91.10
2017-12-24T03:11:57.456Z,91.00
2017-12-24T03:14:25.752Z,91.10
2017-12-24T03:16:54.079Z,91.10
2017-12-24T03:19:23.188Z,91.10
2017-12-24T03:21:51.515Z,91.20
2017-12-24T03:24:19.811Z,91.20
2017-12-24T03:26:48.129Z,91.30
2017-12-24T03:29:16.420Z,91.30
2017-12-24T03:31:44.736Z,91.20
2017-12-24T03:34:13.036Z,91.30
2017-12-24T03:36:41.365Z,91.40
2017-12-24T03:39:09.665Z,91.40
2017-12-24T03:41:37.982Z,91.50
2017-12-24T03:44:06.280Z,91.50
2017-12-24T03:46:34.603Z,91.40
2017-12-24T03:49:02.896Z,91.50
2017-12-24T03:51:31.212Z,91.50
2017-12-24T03:53:59.516Z,91.50
2017-12-24T03:56:27.833Z,91.50
2017-12-24T03:58:56.132Z,91.50
2017-12-24T04:01:23.688Z,91.90
2017-12-24T04:03:52.036Z,91.40
2017-12-24T04:06:20.357Z,91.40
2017-12-24T04:08:48.660Z,91.40
2017-12-24T04:11:16.979Z,91.50
2017-12-24T04:13:44.513Z,91.40
2017-12-24T04:16:12.828Z,91.60
2017-12-24T04:18:41.120Z,91.60
2017-12-24T04:21:09.436Z,91.60
2017-12-24T04:23:37.732Z,91.50
2017-12-24T04:26:06.040Z,91.40
2017-12-24T04:28:34.365Z,91.40
2017-12-24T04:31:02.681Z,91.50
2017-12-24T04:33:30.977Z,91.60
2017-12-24T04:35:59.292Z,91.50
2017-12-24T04:38:27.613Z,91.60
2017-12-24T04:40:55.926Z,91.60
2017-12-24T04:43:24.225Z,91.60
2017-12-24T04:45:52.520Z,91.60
2017-12-24T04:48:20.833Z,91.60
2017-12-24T04:50:49.133Z,91.60
2017-12-24T04:53:17.449Z,91.70
2017-12-24T04:55:45.750Z,91.70
2017-12-24T04:58:14.061Z,91.80
2017-12-24T05:00:42.354Z,91.80
2017-12-24T05:03:10.672Z,91.80
2017-12-24T05:05:38.964Z,91.80
2017-12-24T05:08:07.278Z,91.80
2017-12-24T05:10:35.575Z,91.70
2017-12-24T05:13:03.896Z,91.80
2017-12-24T05:15:32.193Z,91.80
2017-12-24T05:18:00.504Z,91.70
2017-12-24T05:20:28.800Z,91.80
2017-12-24T05:22:57.112Z,91.80
2017-12-24T05:25:25.404Z,91.80
2017-12-24T05:27:53.724Z,91.90
2017-12-24T05:30:22.017Z,91.90
2017-12-24T05:32:50.338Z,91.90
2017-12-24T05:35:18.641Z,91.90
2017-12-24T05:37:46.972Z,91.80
2017-12-24T05:40:15.271Z,91.90
2017-12-24T05:42:42.825Z,91.90
2017-12-24T05:45:11.120Z,91.80
2017-12-24T05:47:39.440Z,91.80
2017-12-24T05:50:07.736Z,91.80
2017-12-24T05:52:36.058Z,91.80
2017-12-24T05:55:04.360Z,92.00
2017-12-24T05:57:32.688Z,91.80
2017-12-24T06:00:00.987Z,91.70
2017-12-24T06:02:29.304Z,91.60
2017-12-24T06:04:57.599Z,91.60
2017-12-24T06:07:25.919Z,91.50
2017-12-24T06:09:54.216Z,91.60
2017-12-24T06:12:22.533Z,91.50
2017-12-24T06:14:50.828Z,91.60
2017-12-24T06:17:19.133Z,91.60
2017-12-24T06:19:47.436Z,91.50
2017-12-24T06:22:15.772Z,91.50
2017-12-24T06:24:44.076Z,91.60
2017-12-24T06:27:12.361Z,91.60
2017-12-24T06:29:40.668Z,91.60
2017-12-24T06:32:08.969Z,91.60
2017-12-24T06:34:37.289Z,91.50
2017-12-24T06:37:05.583Z,91.60
2017-12-24T06:39:33.896Z,91.50
2017-12-24T06:42:01.430Z,91.50
2017-12-24T06:44:29.747Z,91.50
2017-12-24T06:46:58.040Z,91.50
2017-12-24T06:49:26.364Z,91.50
2017-12-24T06:51:54.664Z,91.40
2017-12-24T06:54:22.979Z,91.40
2017-12-24T06:56:51.282Z,91.40
2017-12-24T06:59:19.605Z,91.30
2017-12-24T07:01:47.904Z,91.30
2017-12-24T07:04:16.221Z,91.30
2017-12-24T07:06:44.519Z,91.30
2017-12-24T07:09:12.833Z,91.20
2017-12-24T07:11:41.132Z,91.20
2017-12-24T07:14:09.680Z,91.30
2017-12-24T07:16:37.976Z,91.10
2017-12-24T07:19:05.525Z,91.10
2017-12-24T07:21:33.820Z,91.00
2017-12-24T07:24:02.137Z,91.00
2017-12-24T07:26:30.423Z,91.00
2017-12-24T07:28:58.742Z,91.00
2017-12-24T07:31:27.037Z,91.00
2017-12-24T07:33:55.360Z,91.00
2017-12-24T07:36:23.671Z,90.90
2017-12-24T07:38:51.988Z,90.90
2017-12-24T07:41:20.292Z,90.90
2017-12-24T07:43:48.601Z,90.80
2017-12-24T07:46:16.891Z,90.80
2017-12-24T07:48:45.216Z,91.00
2017-12-24T07:51:13.510Z,90.80
2017-12-24T07:53:41.833Z,90.80
2017-12-24T07:56:10.135Z,90.70
2017-12-24T07:58:38.455Z,90.70
2017-12-24T08:01:06.757Z,90.80
2017-12-24T08:03:35.085Z,90.80
2017-12-24T08:06:03.414Z,90.70
2017-12-24T08:08:30.932Z,90.70
2017-12-24T08:10:59.239Z,90.80
2017-12-24T08:13:27.541Z,90.90
2017-12-24T08:15:55.861Z,90.90
2017-12-24T08:18:24.156Z,90.90
2017-12-24T08:20:52.468Z,90.80
2017-12-24T08:23:20.759Z,91.00
2017-12-24T08:25:49.089Z,91.40
2017-12-24T08:28:17.376Z,90.90
2017-12-24T08:30:45.705Z,90.90
2017-12-24T08:33:14.004Z,91.00
2017-12-24T08:35:42.319Z,91.00
2017-12-24T08:38:10.617Z,90.90
2017-12-24T08:40:38.958Z,90.90
2017-12-24T08:43:06.489Z,90.90
2017-12-24T08:45:34.803Z,90.90
2017-12-24T08:48:03.100Z,90.90
2017-12-24T08:50:31.421Z,90.90
2017-12-24T08:52:59.720Z,90.90
2017-12-24T08:55:28.272Z,90.90
2017-12-24T08:57:56.556Z,90.90
2017-12-24T09:00:24.886Z,90.90
2017-12-24T09:02:53.180Z,90.90
2017-12-24T09:05:21.491Z,90.90
2017-12-24T09:07:49.794Z,90.80
2017-12-24T09:10:17.353Z,90.80
2017-12-24T09:12:45.656Z,90.70
2017-12-24T09:15:13.977Z,90.70
2017-12-24T09:17:42.267Z,90.70
2017-12-24T09:20:10.589Z,90.70
2017-12-24T09:22:38.884Z,90.60
2017-12-24T09:25:07.197Z,90.70
2017-12-24T09:27:35.489Z,90.70
2017-12-24T09:30:03.808Z,90.70
2017-12-24T09:32:31.332Z,90.70
2017-12-24T09:34:59.651Z,90.70
2017-12-24T09:37:27.947Z,90.60
2017-12-24T09:39:55.540Z,90.60
2017-12-24T09:42:23.836Z,90.50
2017-12-24T09:44:52.120Z,90.40
2017-12-24T09:47:20.448Z,90.30
2017-12-24T09:49:48.756Z,90.50
2017-12-24T09:52:17.076Z,90.20
2017-12-24T09:54:45.367Z,90.40
2017-12-24T09:57:13.676Z,90.20
2017-12-24T09:59:41.984Z,90.10
2017-12-24T10:02:10.296Z,90.00
2017-12-24T10:04:38.581Z,90.00
2017-12-24T10:07:06.892Z,90.00
2017-12-24T10:09:35.184Z,90.00
2017-12-24T10:12:03.541Z,90.00
2017-12-24T10:14:31.824Z,90.00
2017-12-24T10:17:00.140Z,90.20
2017-12-24T10:19:28.426Z,90.00
2017-12-24T10:21:56.736Z,90.00
2017-12-24T10:24:25.020Z,90.00
2017-12-24T10:26:53.354Z,89.90
2017-12-24T10:29:20.894Z,89.80
2017-12-24T10:31:49.221Z,89.00
2017-12-24T10:34:17.521Z,89.10
2017-12-24T10:36:45.836Z,89.40
2017-12-24T10:39:14.132Z,88.70
2017-12-24T10:41:42.448Z,88.80
2017-12-24T10:44:10.732Z,88.80
2017-12-24T10:46:39.045Z,88.20
2017-12-24T10:49:07.353Z,87.90
2017-12-24T10:51:35.669Z,87.90
2017-12-24T10:54:03.956Z,88.10
2017-12-24T10:56:32.268Z,87.90
2017-12-24T10:59:00.559Z,87.90
2017-12-24T11:01:28.876Z,87.40
2017-12-24T11:03:57.173Z,87.80
2017-12-24T11:06:25.490Z,87.60
2017-12-24T11:08:53.814Z,87.80
2017-12-24T11:11:22.116Z,87.60
2017-12-24T11:13:50.400Z,87.40
2017-12-24T11:16:18.720Z,88.20
2017-12-24T11:18:47.012Z,88.50
2017-12-24T11:21:15.344Z,87.10
2017-12-24T11:23:43.632Z,87.10
2017-12-24T11:26:11.928Z,86.90
2017-12-24T11:28:40.235Z,87.00
2017-12-24T11:31:08.516Z,87.00
2017-12-24T11:33:36.836Z,87.00
2017-12-24T11:36:05.124Z,87.00
2017-12-24T11:38:33.440Z,86.80
2017-12-24T11:41:01.723Z,86.50
2017-12-24T11:43:30.039Z,87.00
2017-12-24T11:45:58.332Z,85.90
2017-12-24T11:48:26.643Z,85.80
2017-12-24T11:50:54.934Z,85.10
2017-12-24T11:53:23.245Z,84.80
2017-12-24T11:55:50.764Z,84.80
2017-12-24T11:58:19.072Z,85.60
2017-12-24T12:00:47.363Z,85.70
2017-12-24T12:03:14.921Z,85.70
2017-12-24T12:05:43.213Z,85.80
2017-12-24T12:08:11.524Z,86.10
2017-12-24T12:10:39.834Z,86.10
2017-12-24T12:13:08.148Z,87.10
2017-12-24T12:15:36.448Z,86.20
2017-12-24T12:18:04.755Z,86.40
2017-12-24T12:20:33.044Z,86.50
2017-12-24T12:23:01.359Z,86.60
2017-12-24T12:25:29.656Z,87.00
2017-12-24T12:27:57.977Z,87.10
2017-12-24T12:30:26.268Z,86.70
2017-12-24T12:32:54.580Z,86.80
2017-12-24T12:35:22.871Z,87.00
2017-12-24T12:37:51.181Z,86.20
2017-12-24T12:40:19.477Z,86.10
2017-12-24T12:42:47.791Z,85.80
2017-12-24T12:45:16.075Z,86.00
2017-12-24T12:47:44.384Z,85.50
2017-12-24T12:50:12.679Z,85.70
2017-12-24T12:52:40.984Z,85.50
2017-12-24T12:55:09.284Z,85.50
2017-12-24T12:57:37.588Z,85.60
2017-12-24T13:00:05.877Z,85.90
2017-12-24T13:02:34.233Z,86.50
2017-12-24T13:05:02.521Z,85.50
2017-12-24T13:07:30.814Z,84.90
2017-12-24T13:09:58.368Z,84.90
2017-12-24T13:12:26.660Z,85.00
2017-12-24T13:14:54.970Z,85.50
2017-12-24T13:17:23.284Z,85.80
2017-12-24T13:19:50.817Z,85.80
2017-12-24T13:22:19.116Z,85.60
2017-12-24T13:24:47.424Z,85.40
2017-12-24T13:27:15.708Z,85.90
2017-12-24T13:29:44.018Z,86.30
2017-12-24T13:32:12.320Z,86.50
2017-12-24T13:34:40.641Z,86.40
2017-12-24T13:37:08.929Z,86.60
2017-12-24T13:39:37.243Z,86.60
2017-12-24T13:42:05.537Z,86.80
2017-12-24T13:44:33.865Z,87.00
2017-12-24T13:47:02.157Z,86.90
2017-12-24T13:49:30.474Z,87.00
2017-12-24T13:51:58.773Z,86.90
2017-12-24T13:54:27.084Z,87.10
2017-12-24T13:56:55.377Z,87.20
2017-12-24T13:59:23.693Z,87.40
2017-12-24T14:01:51.988Z,87.30
2017-12-24T14:04:20.301Z,87.20
2017-12-24T14:06:48.592Z,87.30
2017-12-24T14:09:16.920Z,87.40
2017-12-24T14:11:45.215Z,87.60
2017-12-24T14:14:13.537Z,87.90
2017-12-24T14:16:41.825Z,87.80
2017-12-24T14:19:10.136Z,88.20
2017-12-24T14:21:37.659Z,88.20
2017-12-24T14:24:05.969Z,88.20
2017-12-24T14:26:34.256Z,88.40
2017-12-24T14:29:02.577Z,88.50
2017-12-24T14:31:30.868Z,88.30
2017-12-24T14:33:59.189Z,87.80
2017-12-24T14:36:27.476Z,88.10
2017-12-24T14:38:55.817Z,88.40
2017-12-24T14:41:24.133Z,88.40
2017-12-24T14:43:52.422Z,88.40
2017-12-24T14:46:20.744Z,88.60
2017-12-24T14:48:49.960Z,88.80
2017-12-24T14:51:17.516Z,88.60
2017-12-24T14:53:45.811Z,88.80
2017-12-24T14:56:14.132Z,88.80
2017-12-24T14:58:42.461Z,88.90
2017-12-24T15:01:10.784Z,89.10
2017-12-24T15:03:39.078Z,90.10
2017-12-24T15:06:07.405Z,89.40
2017-12-24T15:08:36.412Z,89.50
2017-12-24T15:11:04.728Z,89.60
2017-12-24T15:13:33.023Z,89.80
2017-12-24T15:16:01.428Z,89.90
2017-12-24T15:18:29.729Z,90.00
2017-12-24T15:20:58.049Z,90.00
2017-12-24T15:23:26.356Z,90.00
2017-12-24T15:25:54.672Z,90.00
2017-12-24T15:28:22.979Z,89.70
2017-12-24T15:30:51.293Z,89.70
2017-12-24T15:33:18.819Z,89.60
2017-12-24T15:35:47.128Z,89.80
2017-12-24T15:38:15.424Z,89.80
2017-12-24T15:40:43.744Z,90.00
2017-12-24T15:43:12.037Z,90.00
2017-12-24T15:45:40.355Z,90.10
2017-12-24T15:48:08.645Z,90.10
2017-12-24T15:50:36.964Z,90.10
2017-12-24T15:53:05.256Z,90.20
2017-12-24T15:55:33.580Z,90.20
2017-12-24T15:58:01.875Z,90.20
2017-12-24T16:00:30.197Z,90.10
2017-12-24T16:02:58.492Z,90.10
2017-12-24T16:05:26.819Z,90.30
2017-12-24T16:07:55.125Z,90.00
2017-12-24T16:10:23.452Z,90.20
2017-12-24T16:12:51.741Z,90.20
2017-12-24T16:15:20.091Z,90.30
2017-12-24T16:17:48.397Z,90.30
2017-12-24T16:20:15.933Z,90.30
2017-12-24T16:22:44.252Z,90.40
2017-12-24T16:25:12.541Z,90.30
2017-12-24T16:27:40.866Z,90.20
2017-12-24T16:30:09.161Z,90.30
2017-12-24T16:32:37.477Z,90.30
2017-12-24T16:35:05.777Z,90.40
2017-12-24T16:37:34.089Z,90.30
2017-12-24T16:40:02.381Z,90.30
2017-12-24T16:42:30.692Z,90.30
2017-12-24T16:44:58.980Z,90.40
2017-12-24T16:47:27.293Z,90.40
2017-12-24T16:49:55.585Z,90.50
2017-12-24T16:52:23.900Z,90.50
2017-12-24T16:54:52.201Z,90.50
2017-12-24T16:57:20.533Z,90.50
2017-12-24T16:59:48.820Z,90.50
2017-12-24T17:02:17.137Z,90.60
2017-12-24T17:04:45.444Z,90.70
2017-12-24T17:07:13.762Z,90.70
2017-12-24T17:09:42.064Z,90.80
2017-12-24T17:12:10.377Z,90.80
2017-12-24T17:14:38.673Z,90.80
2017-12-24T17:17:06.984Z,90.80
2017-12-24T17:19:35.279Z,90.90
2017-12-24T17:22:03.596Z,91.00
2017-12-24T17:24:31.889Z,91.00
2017-12-24T17:27:00.211Z,91.00
2017-12-24T17:29:28.509Z,91.10
2017-12-24T17:31:56.816Z,91.00
2017-12-24T17:34:25.123Z,91.10
2017-12-24T17:36:53.440Z,91.10
2017-12-24T17:39:21.744Z,91.00
2017-12-24T17:41:50.058Z,91.00
2017-12-24T17:44:18.352Z,90.90
2017-12-24T17:46:46.668Z,91.00
2017-12-24T17:49:14.959Z,91.00
2017-12-24T17:51:43.279Z,91.00
2017-12-24T17:54:11.572Z,91.00
2017-12-24T17:56:39.878Z,90.90
2017-12-24T17:59:08.197Z,90.90
2017-12-24T18:01:36.497Z,90.90
2017-12-24T18:04:04.812Z,91.00
2017-12-24T18:06:33.117Z,90.90
2017-12-24T18:09:01.420Z,91.00
2017-12-24T18:11:29.717Z,90.90
2017-12-24T18:13:58.036Z,90.90
2017-12-24T18:16:26.323Z,90.70
2017-12-24T18:18:54.642Z,90.70
2017-12-24T18:21:22.935Z,90.40
2017-12-24T18:23:51.248Z,90.20
2017-12-24T18:26:19.548Z,90.50
2017-12-24T18:28:47.866Z,90.60
2017-12-24T18:31:16.169Z,90.70
2017-12-24T18:33:44.480Z,90.70
2017-12-24T18:36:12.783Z,90.80
2017-12-24T18:38:41.096Z,90.90
2017-12-24T18:41:09.391Z,90.90
2017-12-24T18:43:37.708Z,90.90
2017-12-24T18:46:06.017Z,90.90
2017-12-24T18:48:34.337Z,91.00
2017-12-24T18:51:02.633Z,91.00
2017-12-24T18:53:30.949Z,90.90
2017-12-24T18:55:59.246Z,90.90
2017-12-24T18:58:27.558Z,90.80
2017-12-24T19:00:55.848Z,90.80
2017-12-24T19:03:24.202Z,90.80
2017-12-24T19:05:52.469Z,90.80
2017-12-24T19:11:14.963Z,90.70
2017-12-24T19:13:43.267Z,90.80
2017-12-24T19:16:11.572Z,90.70
2017-12-24T19:21:04.388Z,90.70
2017-12-24T19:23:32.709Z,90.50
2017-12-24T19:26:01.001Z,90.50
2017-12-24T19:28:29.312Z,90.30
2017-12-24T19:30:57.617Z,90.30
2017-12-24T19:33:25.933Z,90.40
2017-12-24T19:35:54.233Z,90.50
2017-12-24T19:38:22.545Z,90.60
2017-12-24T19:40:50.837Z,90.60
2017-12-24T19:43:19.145Z,90.70
2017-12-24T19:45:46.682Z,90.70
2017-12-24T19:48:14.996Z,90.70
2017-12-24T19:50:43.292Z,90.80
2017-12-24T19:53:11.605Z,90.70
2017-12-24T19:55:39.917Z,90.50
2017-12-24T19:58:08.216Z,90.40
2017-12-24T20:00:36.528Z,90.50
2017-12-24T20:03:04.820Z,90.60
2017-12-24T20:05:33.132Z,90.60
2017-12-24T20:08:01.416Z,90.50
2017-12-24T20:10:29.736Z,90.50
2017-12-24T20:12:58.043Z,90.40
2017-12-24T20:15:26.351Z,90.30
2017-12-24T20:17:54.636Z,90.20
2017-12-24T20:20:22.957Z,90.20
2017-12-24T20:22:51.247Z,90.30
2017-12-24T20:25:18.796Z,90.30
2017-12-24T20:27:47.089Z,90.00
2017-12-24T20:30:15.408Z,89.80
2017-12-24T20:32:43.707Z,90.00
2017-12-24T20:35:12.024Z,90.00
2017-12-24T20:37:40.319Z,90.00
2017-12-24T20:40:08.649Z,90.10
2017-12-24T20:42:36.944Z,90.20
2017-12-24T20:45:05.267Z,90.00
2017-12-24T20:47:33.560Z,89.50
2017-12-24T20:50:01.867Z,89.60
2017-12-24T20:52:30.155Z,89.50
2017-12-24T20:54:58.468Z,89.70
2017-12-24T20:57:26.769Z,89.50
2017-12-24T20:59:55.089Z,89.50
2017-12-24T21:02:23.389Z,89.50
2017-12-24T21:04:51.699Z,89.50
2017-12-24T21:07:19.992Z,89.50
2017-12-24T21:09:48.311Z,89.40
2017-12-24T21:12:16.604Z,89.30
2017-12-24T21:14:44.916Z,90.20
2017-12-24T21:17:13.229Z,89.60
2017-12-24T21:19:41.544Z,89.50
2017-12-24T21:22:09.832Z,88.90
2017-12-24T21:24:38.160Z,89.10
2017-12-24T21:27:06.467Z,89.30
2017-12-24T21:29:36.225Z,89.10
2017-12-24T21:32:04.521Z,89.10
2017-12-24T21:34:32.820Z,89.00
2017-12-24T21:37:01.139Z,88.90
2017-12-24T21:39:29.420Z,89.10
2017-12-24T21:41:57.727Z,89.30
2017-12-24T21:44:26.016Z,89.40
2017-12-24T21:46:54.328Z,89.40
2017-12-24T21:49:22.636Z,89.60
2017-12-24T21:51:50.960Z,89.70
2017-12-24T21:54:19.278Z,89.80
2017-12-24T21:56:47.588Z,89.90
2017-12-24T21:59:15.876Z,90.00
2017-12-24T22:01:44.236Z,90.00
2017-12-24T22:04:12.604Z,89.80
2017-12-24T22:06:40.921Z,89.80
2017-12-24T22:09:09.212Z,89.90
2017-12-24T22:11:37.523Z,90.00
2017-12-24T22:14:05.807Z,90.00
2017-12-24T22:16:34.115Z,89.80
2017-12-24T22:19:02.411Z,89.80
2017-12-24T22:21:30.724Z,90.00
2017-12-24T22:23:59.014Z,89.90
2017-12-24T22:26:27.324Z,89.90
2017-12-24T22:28:55.610Z,90.00
2017-12-24T22:31:23.916Z,89.20
2017-12-24T22:33:52.208Z,89.20
2017-12-24T22:36:20.521Z,89.40
2017-12-24T22:38:48.907Z,89.30
2017-12-24T22:41:17.222Z,89.20
2017-12-24T22:43:45.525Z,89.20
2017-12-24T22:46:13.836Z,89.20
2017-12-24T22:48:42.136Z,89.20
2017-12-24T22:51:10.455Z,89.10
2017-12-24T22:53:38.751Z,89.00
2017-12-24T22:56:06.303Z,88.90
2017-12-24T22:58:34.588Z,88.80
2017-12-24T23:01:02.908Z,88.80
2017-12-24T23:03:31.206Z,89.20
2017-12-24T23:05:59.524Z,89.30
2017-12-24T23:08:27.819Z,89.20
2017-12-24T23:10:56.127Z,89.20
2017-12-24T23:13:24.415Z,88.80
2017-12-24T23:15:52.706Z,88.90
2017-12-24T23:18:21.027Z,88.80
2017-12-24T23:20:49.311Z,88.90
2017-12-24T23:23:17.620Z,89.10
2017-12-24T23:25:45.908Z,89.00
2017-12-24T23:28:14.220Z,90.00
2017-12-24T23:30:42.509Z,89.10
2017-12-24T23:33:10.819Z,89.20
2017-12-24T23:35:39.104Z,88.90
2017-12-24T23:38:07.420Z,89.00
2017-12-24T23:40:35.704Z,88.80
2017-12-24T23:43:04.026Z,89.00
2017-12-24T23:45:32.324Z,88.80
2017-12-24T23:48:00.628Z,88.60
2017-12-24T23:50:28.916Z,88.40
2017-12-24T23:52:57.228Z,88.50
2017-12-24T23:55:25.515Z,88.70
2017-12-24T23:57:53.824Z,89.00
